Time;durP1;ratioP1;P1;durP2;ratioP2;P2;SDS_P1;SDS_P2;PMS_P1;PMS_P2;Temp;Humidity;BMP_temperature;BMP_pressure;BME280_temperature;BME280_humidity;BME280_pressure;Samples;Min_cycle;Max_cycle;Signal;HPM_P1;HPM_P2
2020/12/16 00:00:09;;;;;;;27.75;23.10;;;9.90;79.20;11.60;100551.00;;;;5059209;28;20468;-80
2020/12/16 00:02:38;;;;;;;27.70;23.50;;;9.80;79.50;11.60;100555.00;;;;5053028;28;20449;-79
2020/12/16 00:05:09;;;;;;;30.10;23.80;;;9.80;80.00;11.60;100566.00;;;;5053313;28;20420;-79
2020/12/16 00:07:38;;;;;;;29.23;25.10;;;9.80;81.10;11.60;100564.00;;;;5050928;28;20429;-78
2020/12/16 00:10:09;;;;;;;32.03;24.70;;;9.90;80.40;11.60;100563.00;;;;5064319;28;20425;-79
2020/12/16 00:12:39;;;;;;;27.43;23.77;;;9.90;80.10;11.60;100564.00;;;;5064625;28;20446;-79
2020/12/16 00:15:07;;;;;;;28.55;23.23;;;9.90;79.70;11.60;100561.00;;;;5062768;28;20449;-78
2020/12/16 00:17:36;;;;;;;26.88;22.48;;;10.00;78.80;11.60;100561.00;;;;5051999;28;20424;-80
2020/12/16 00:20:06;;;;;;;27.23;23.10;;;10.00;78.90;11.60;100575.00;;;;5052538;28;20950;-79
2020/12/16 00:22:40;;;;;;;31.17;26.20;;;10.00;78.70;11.60;100573.00;;;;5080015;28;20504;-80
2020/12/16 00:25:09;;;;;;;32.88;28.23;;;10.00;78.40;11.60;100582.00;;;;5076376;28;20420;-80
2020/12/16 00:27:37;;;;;;;32.00;27.60;;;10.00;78.40;11.50;100578.00;;;;5070672;28;20418;-81
2020/12/16 00:30:07;;;;;;;31.13;27.73;;;9.90;79.10;11.50;100569.00;;;;5076998;28;20423;-79
2020/12/16 00:32:37;;;;;;;32.67;28.50;;;9.90;79.30;11.50;100570.00;;;;5067793;28;20479;-79
2020/12/16 00:35:06;;;;;;;34.58;29.63;;;9.90;79.30;11.50;100588.00;;;;5063108;28;20536;-78
2020/12/16 00:37:36;;;;;;;33.88;28.23;;;9.90;79.40;11.50;100578.00;;;;5054739;28;20500;-79
2020/12/16 00:40:08;;;;;;;31.50;27.57;;;9.90;79.30;11.50;100576.00;;;;5056834;28;20624;-79
2020/12/16 00:42:36;;;;;;;30.87;26.33;;;9.80;78.90;11.50;100573.00;;;;5059112;28;20830;-80
2020/12/16 00:45:04;;;;;;;32.30;27.50;;;9.80;79.50;11.60;100589.00;;;;5054171;28;20426;-79
2020/12/16 00:47:34;;;;;;;28.40;25.30;;;9.80;79.60;11.60;100577.00;;;;5058386;28;20410;-78
2020/12/16 00:50:02;;;;;;;31.85;26.90;;;9.80;79.50;11.50;100569.00;;;;5043904;28;20418;-78
2020/12/16 00:52:29;;;;;;;31.98;26.08;;;9.90;79.50;11.60;100575.00;;;;5063655;28;20415;-77
2020/12/16 00:54:58;;;;;;;33.40;27.35;;;9.90;79.20;11.60;100588.00;;;;5063300;28;20422;-81
2020/12/16 00:57:26;;;;;;;31.50;26.52;;;9.80;79.00;11.50;100591.00;;;;5054825;28;20488;-78
2020/12/16 00:59:54;;;;;;;30.63;26.20;;;9.90;78.90;11.60;100577.00;;;;5062512;28;20413;-77
2020/12/16 01:02:21;;;;;;;32.53;25.77;;;9.90;78.90;11.50;100593.00;;;;5050932;28;20415;-79
2020/12/16 01:04:48;;;;;;;32.58;27.25;;;9.80;79.10;11.50;100591.00;;;;5063497;28;20426;-77
2020/12/16 01:07:16;;;;;;;31.15;27.83;;;9.80;78.90;11.50;100590.00;;;;5054266;28;20905;-78
2020/12/16 01:09:44;;;;;;;35.53;28.08;;;9.80;78.90;11.40;100587.00;;;;5073430;28;20441;-78
2020/12/16 01:12:13;;;;;;;37.70;29.67;;;9.80;78.90;11.40;100601.00;;;;5058498;28;20412;-78
2020/12/16 01:14:41;;;;;;;33.38;28.10;;;9.80;78.90;11.40;100595.00;;;;5062010;28;20435;-80
2020/12/16 01:17:11;;;;;;;33.73;28.40;;;9.80;78.90;11.40;100605.00;;;;5060739;28;20429;-82
2020/12/16 01:19:39;;;;;;;33.47;29.47;;;9.80;78.90;11.40;100602.00;;;;5076367;28;20428;-80
2020/12/16 01:22:07;;;;;;;31.98;27.42;;;9.70;80.10;11.30;100587.00;;;;5067854;28;20968;-81
2020/12/16 01:24:34;;;;;;;33.08;27.38;;;9.70;79.60;11.30;100600.00;;;;5053920;28;20483;-77
2020/12/16 01:27:02;;;;;;;35.53;29.95;;;9.70;79.60;11.30;100607.00;;;;5052024;28;20513;-78
2020/12/16 01:29:32;;;;;;;35.08;29.63;;;9.70;79.70;11.30;100601.00;;;;5060863;28;20426;-80
2020/12/16 01:32:00;;;;;;;31.83;27.83;;;9.70;79.90;11.40;100612.00;;;;5066291;28;20406;-78
2020/12/16 01:34:32;;;;;;;31.10;26.80;;;9.70;79.80;11.30;100605.00;;;;5076678;28;20425;-79
2020/12/16 01:37:04;;;;;;;36.92;27.95;;;9.70;79.90;11.40;100608.00;;;;5077283;28;20432;-77
2020/12/16 01:39:37;;;;;;;46.05;29.70;;;9.70;79.80;11.40;100624.00;;;;5077510;28;20437;-79
2020/12/16 01:42:07;;;;;;;50.97;33.10;;;9.70;79.90;11.30;100610.00;;;;5070107;28;20425;-78
2020/12/16 01:44:34;;;;;;;50.70;33.60;;;9.70;79.90;11.30;100614.00;;;;5060970;28;20421;-78
2020/12/16 01:47:07;;;;;;;61.10;36.15;;;9.60;79.90;11.30;100611.00;;;;5040739;28;20423;-78
2020/12/16 01:49:42;;;;;;;62.60;36.10;;;9.60;80.20;11.30;100614.00;;;;5051145;28;20432;-79
2020/12/16 01:52:16;;;;;;;62.25;35.83;;;9.60;80.10;11.30;100618.00;;;;5061952;28;20427;-79
2020/12/16 01:54:53;;;;;;;76.53;39.53;;;9.60;80.70;11.30;100612.00;;;;5068613;28;20428;-79
2020/12/16 01:57:24;;;;;;;68.90;37.37;;;9.60;80.40;11.30;100618.00;;;;5058076;28;20432;-80
2020/12/16 02:00:07;;;;;;;66.28;37.03;;;9.50;80.30;11.30;100602.00;;;;5050267;28;20464;-79
2020/12/16 02:02:47;;;;;;;67.30;37.30;;;9.60;80.30;11.30;100618.00;;;;5059119;28;20417;-78
2020/12/16 02:05:22;;;;;;;71.70;37.78;;;9.60;80.10;11.30;100613.00;;;;5064522;28;20448;-78
2020/12/16 02:07:58;;;;;;;98.22;39.45;;;9.60;79.90;11.40;100599.00;;;;5078823;28;20440;-78
2020/12/16 02:10:29;;;;;;;178.83;44.73;;;9.60;79.80;11.30;100594.00;;;;5048930;28;20426;-79
2020/12/16 02:12:57;;;;;;;118.67;42.10;;;9.60;79.50;11.20;100604.00;;;;5063151;28;20426;-78
2020/12/16 02:15:24;;;;;;;130.50;44.08;;;9.50;79.90;11.20;100615.00;;;;5062606;28;20408;-78
2020/12/16 02:17:52;;;;;;;154.60;45.03;;;9.50;80.40;11.30;100611.00;;;;5056509;28;20420;-77
2020/12/16 02:20:21;;;;;;;152.57;44.85;;;9.50;80.40;11.20;100602.00;;;;5068841;28;20516;-78
2020/12/16 02:22:55;;;;;;;292.38;50.38;;;9.50;80.40;11.20;100618.00;;;;5068580;28;20409;-78
2020/12/16 02:25:30;;;;;;;160.10;44.78;;;9.50;80.10;11.10;100626.00;;;;5064954;28;20445;-79
2020/12/16 02:28:03;;;;;;;194.38;46.00;;;9.40;80.50;11.10;100616.00;;;;5057141;28;20425;-79
2020/12/16 02:30:34;;;;;;;267.83;49.05;;;9.30;80.90;10.90;100616.00;;;;5057274;28;20420;-79
2020/12/16 02:33:20;;;;;;;238.35;47.05;;;9.30;81.00;10.80;100621.00;;;;5065501;28;20460;-79
2020/12/16 02:36:13;;;;;;;214.00;45.55;;;9.30;81.20;10.90;100637.00;;;;5065886;28;20414;-79
2020/12/16 02:39:00;;;;;;;226.00;47.70;;;9.30;81.40;10.80;100617.00;;;;5070964;28;20419;-78
2020/12/16 02:41:39;;;;;;;175.13;42.53;;;9.20;81.50;10.80;100630.00;;;;5067990;28;20445;-78
2020/12/16 02:44:08;;;;;;;350.35;53.78;;;9.20;81.60;10.90;100642.00;;;;5057609;28;20440;-78
2020/12/16 02:46:43;;;;;;;343.58;51.33;;;9.20;81.90;10.90;100645.00;;;;5063456;28;20548;-79
2020/12/16 02:49:10;;;;;;;338.77;50.42;;;9.20;81.50;10.90;100637.00;;;;5062956;28;20433;-78
2020/12/16 02:51:38;;;;;;;139.75;40.38;;;9.20;81.60;10.90;100643.00;;;;5061643;28;20413;-79
2020/12/16 02:54:07;;;;;;;288.20;47.15;;;9.30;81.50;11.00;100651.00;;;;5063763;28;20489;-78
2020/12/16 02:56:50;;;;;;;372.63;51.50;;;9.30;81.40;10.90;100655.00;;;;5063282;28;20425;-79
2020/12/16 02:59:22;;;;;;;381.92;54.97;;;9.30;81.00;10.80;100652.00;;;;5062693;28;20449;-79
2020/12/16 03:01:55;;;;;;;171.65;42.45;;;9.20;81.00;10.90;100660.00;;;;5072889;28;20421;-78
2020/12/16 03:04:43;;;;;;;315.15;48.47;;;9.20;81.30;10.90;100646.00;;;;5060628;28;20433;-78
2020/12/16 03:07:17;;;;;;;428.15;51.65;;;9.20;81.00;10.80;100648.00;;;;5061625;28;20417;-79
2020/12/16 03:09:45;;;;;;;196.65;41.58;;;9.20;81.10;10.80;100659.00;;;;5058175;28;20413;-78
2020/12/16 03:12:13;;;;;;;98.28;35.80;;;9.20;81.30;10.80;100649.00;;;;5057131;28;20415;-79
2020/12/16 03:14:47;;;;;;;301.13;46.53;;;9.20;81.50;10.90;100653.00;;;;5053210;28;20780;-78
2020/12/16 03:17:14;;;;;;;459.75;56.10;;;9.30;81.60;10.90;100663.00;;;;5052349;28;20462;-78
2020/12/16 03:19:46;;;;;;;291.30;44.75;;;9.20;81.30;10.80;100658.00;;;;5057895;28;20421;-78
2020/12/16 03:22:15;;;;;;;321.20;46.45;;;9.20;81.10;10.80;100623.00;;;;5053821;28;20555;-78
2020/12/16 03:24:55;;;;;;;249.27;43.58;;;9.10;81.10;10.70;100656.00;;;;5051072;28;20434;-78
2020/12/16 03:27:42;;;;;;;236.80;43.22;;;9.10;81.00;10.60;100656.00;;;;5073448;28;20435;-78
2020/12/16 03:30:28;;;;;;;257.02;43.97;;;9.00;81.10;10.60;100667.00;;;;5068823;28;20504;-77
2020/12/16 03:33:22;;;;;;;183.10;40.10;;;8.90;81.30;10.50;100670.00;;;;5036131;28;20505;-78
2020/12/16 03:36:03;;;;;;;200.98;39.67;;;9.00;81.70;10.50;100661.00;;;;5075973;28;20453;-78
2020/12/16 03:38:31;;;;;;;221.57;40.30;;;9.00;81.50;10.50;100656.00;;;;5056889;28;20430;-79
2020/12/16 03:40:59;;;;;;;190.80;39.15;;;8.90;81.60;10.60;100655.00;;;;5062410;28;20445;-77
2020/12/16 03:43:32;;;;;;;296.45;44.28;;;9.00;81.80;10.60;100674.00;;;;5072448;28;20516;-78
2020/12/16 03:45:59;;;;;;;215.02;40.95;;;9.00;81.60;10.70;100652.00;;;;5058839;28;20474;-78
2020/12/16 03:48:27;;;;;;;186.63;38.30;;;9.00;82.20;10.70;100657.00;;;;5057166;28;20423;-77
2020/12/16 03:50:55;;;;;;;120.82;35.35;;;9.10;81.30;10.70;100653.00;;;;5051031;28;20952;-78
2020/12/16 03:53:22;;;;;;;113.60;33.80;;;9.10;82.10;10.80;100654.00;;;;5048395;28;20465;-78
2020/12/16 03:56:06;;;;;;;82.73;32.53;;;9.20;81.30;10.80;100661.00;;;;5040836;28;20499;-77
2020/12/16 03:58:53;;;;;;;89.22;32.67;;;9.20;81.10;10.90;100671.00;;;;5055676;28;20410;-78
2020/12/16 04:01:36;;;;;;;109.20;34.45;;;9.20;80.70;11.00;100658.00;;;;5064363;28;20807;-77
2020/12/16 04:04:04;;;;;;;92.78;32.47;;;9.30;80.70;11.00;100660.00;;;;5064787;28;20431;-77
2020/12/16 04:06:37;;;;;;;82.35;31.42;;;9.30;80.50;11.00;100655.00;;;;5062495;28;20433;-78
2020/12/16 04:09:06;;;;;;;79.70;30.30;;;9.40;80.40;11.00;100656.00;;;;5044115;28;20504;-78
2020/12/16 04:11:38;;;;;;;67.50;28.90;;;9.30;80.20;11.00;100652.00;;;;5056097;28;20455;-78
2020/12/16 04:14:28;;;;;;;63.35;28.08;;;9.40;80.10;11.00;100653.00;;;;5044770;28;20500;-78
2020/12/16 04:16:57;;;;;;;63.67;28.27;;;9.40;80.10;11.00;100661.00;;;;5066664;28;20450;-78
2020/12/16 04:19:31;;;;;;;64.60;28.75;;;9.30;79.90;11.00;100655.00;;;;5067784;28;20988;-79
2020/12/16 04:21:59;;;;;;;74.65;29.55;;;9.30;80.20;11.00;100655.00;;;;5063759;28;20831;-78
2020/12/16 04:24:32;;;;;;;63.40;29.60;;;9.30;81.00;11.00;100638.00;;;;5058093;28;20474;-79
2020/12/16 04:27:07;;;;;;;56.20;27.67;;;9.30;81.10;11.00;100644.00;;;;5055119;28;20448;-77
2020/12/16 04:29:38;;;;;;;57.00;28.40;;;9.30;80.50;11.10;100659.00;;;;5055771;28;20963;-78
2020/12/16 04:32:06;;;;;;;49.72;26.48;;;9.40;80.40;11.10;100653.00;;;;5060905;28;20411;-78
2020/12/16 04:34:41;;;;;;;52.13;27.15;;;9.40;80.30;11.10;100657.00;;;;5057928;28;22411;-79
2020/12/16 04:37:09;;;;;;;51.97;27.08;;;9.50;80.10;11.10;100655.00;;;;5076085;28;20416;-78
2020/12/16 04:39:41;;;;;;;54.25;29.05;;;9.40;80.10;11.10;100656.00;;;;5075706;28;20923;-78
2020/12/16 04:42:11;;;;;;;48.30;27.23;;;9.50;80.40;11.10;100664.00;;;;5073598;28;20507;-78
2020/12/16 04:44:41;;;;;;;47.45;25.90;;;9.50;80.40;11.10;100654.00;;;;5056699;28;20770;-79
2020/12/16 04:47:14;;;;;;;43.83;25.55;;;9.40;80.30;11.10;100653.00;;;;5056340;28;20758;-76
2020/12/16 04:49:46;;;;;;;42.13;24.50;;;9.50;80.30;11.10;100650.00;;;;5055487;28;20816;-77
2020/12/16 04:52:21;;;;;;;46.10;25.55;;;9.40;80.00;11.10;100656.00;;;;5056430;28;20487;-76
2020/12/16 04:55:03;;;;;;;50.63;26.98;;;9.50;80.20;11.10;100660.00;;;;5057406;28;20425;-78
2020/12/16 04:57:37;;;;;;;49.83;25.40;;;9.50;80.00;11.20;100673.00;;;;5066538;28;20471;-80
2020/12/16 05:00:05;;;;;;;48.60;25.90;;;9.50;79.80;11.20;100668.00;;;;5076196;28;20496;-79
2020/12/16 05:02:55;;;;;;;49.55;26.23;;;9.50;79.50;11.20;100672.00;;;;5077618;28;20436;-79
2020/12/16 05:06:01;;;;;;;49.70;25.58;;;9.50;79.60;11.20;100681.00;;;;5055312;28;20425;-78
2020/12/16 05:08:29;;;;;;;46.33;25.88;;;9.50;79.60;11.20;100686.00;;;;5077482;28;20576;-79
2020/12/16 05:10:56;;;;;;;46.90;25.10;;;9.50;79.60;11.20;100688.00;;;;5078781;28;20455;-78
2020/12/16 05:13:27;;;;;;;47.38;26.63;;;9.50;79.60;11.20;100699.00;;;;5064569;28;20455;-78
2020/12/16 05:16:01;;;;;;;45.70;25.73;;;9.50;79.60;11.20;100701.00;;;;5067451;28;20457;-78
2020/12/16 05:18:28;;;;;;;51.53;27.20;;;9.50;79.80;11.20;100694.00;;;;5071431;28;20467;-76
2020/12/16 05:21:02;;;;;;;50.95;25.33;;;9.50;79.80;11.10;100693.00;;;;5071085;28;20434;-79
2020/12/16 05:23:35;;;;;;;52.15;26.60;;;9.50;79.70;11.00;100687.00;;;;5073802;28;20441;-78
2020/12/16 05:26:06;;;;;;;55.90;27.98;;;9.50;79.80;11.00;100686.00;;;;5093406;28;20436;-78
2020/12/16 05:28:35;;;;;;;61.28;29.10;;;9.40;79.90;10.90;100700.00;;;;5090430;28;20546;-77
2020/12/16 05:31:08;;;;;;;62.53;28.83;;;9.40;80.20;10.90;100705.00;;;;5065201;28;20432;-78
2020/12/16 05:33:40;;;;;;;58.63;28.23;;;9.30;80.40;10.90;100695.00;;;;5071128;28;20426;-77
2020/12/16 05:36:10;;;;;;;60.15;29.33;;;9.30;80.70;10.80;100692.00;;;;5056659;28;20483;-79
2020/12/16 05:38:50;;;;;;;60.15;29.77;;;9.30;80.60;10.80;100696.00;;;;5054149;28;20418;-77
2020/12/16 05:41:26;;;;;;;58.00;29.75;;;9.30;80.80;10.80;100700.00;;;;5054010;28;20493;-78
2020/12/16 05:44:14;;;;;;;58.88;29.70;;;9.40;80.80;10.80;100702.00;;;;5052648;28;20422;-78
2020/12/16 05:46:43;;;;;;;54.08;28.23;;;9.40;80.90;10.80;100702.00;;;;5043869;28;20442;-78
2020/12/16 05:49:21;;;;;;;56.47;29.50;;;9.40;80.90;10.80;100691.00;;;;5051146;28;20520;-78
2020/12/16 05:51:55;;;;;;;58.35;29.15;;;9.40;80.80;10.80;100685.00;;;;5054535;28;20449;-78
2020/12/16 05:54:23;;;;;;;58.85;30.80;;;9.40;80.90;10.80;100698.00;;;;5059276;28;20433;-78
2020/12/16 05:57:13;;;;;;;55.38;29.20;;;9.30;80.70;10.90;100707.00;;;;5052626;28;20432;-79
2020/12/16 05:59:40;;;;;;;56.10;29.42;;;9.40;80.90;10.90;100703.00;;;;5064413;28;20478;-80
2020/12/16 06:02:08;;;;;;;56.13;30.02;;;9.40;80.80;10.90;100698.00;;;;5067133;28;20436;-79
2020/12/16 06:04:37;;;;;;;53.07;28.80;;;9.40;80.80;10.90;100699.00;;;;5070977;28;20432;-77
2020/12/16 06:07:04;;;;;;;52.92;29.30;;;9.40;80.80;10.90;100700.00;;;;5081228;28;20507;-81
2020/12/16 06:09:33;;;;;;;45.88;27.70;;;9.50;80.80;10.90;100680.00;;;;5075086;28;20792;-77
2020/12/16 06:12:06;;;;;;;48.10;27.15;;;9.50;80.70;10.90;100681.00;;;;5048544;28;20433;-77
2020/12/16 06:14:35;;;;;;;55.22;28.40;;;9.50;81.20;10.90;100680.00;;;;5050724;28;20436;-77
2020/12/16 06:17:12;;;;;;;55.80;29.25;;;9.50;80.40;10.90;100690.00;;;;5042785;28;20437;-79
2020/12/16 06:19:44;;;;;;;57.72;30.27;;;9.50;80.10;10.90;100688.00;;;;5068613;28;20456;-78
2020/12/16 06:22:12;;;;;;;51.30;29.63;;;9.40;80.20;10.90;100691.00;;;;5067132;28;20436;-78
2020/12/16 06:24:44;;;;;;;51.25;30.45;;;9.40;80.40;10.90;100693.00;;;;5044642;28;20430;-78
2020/12/16 06:27:13;;;;;;;49.33;28.80;;;9.40;80.40;10.90;100686.00;;;;5052557;28;20937;-78
2020/12/16 06:29:46;;;;;;;48.17;30.63;;;9.40;80.40;10.90;100680.00;;;;5035317;28;20429;-78
2020/12/16 06:32:26;;;;;;;51.92;31.15;;;9.40;80.30;10.90;100697.00;;;;5050949;28;20439;-78
2020/12/16 06:34:58;;;;;;;49.40;30.60;;;9.40;80.30;10.80;100689.00;;;;5053927;28;20432;-79
2020/12/16 06:37:25;;;;;;;54.60;31.95;;;9.40;80.40;10.80;100669.00;;;;5053586;28;20453;-79
2020/12/16 06:39:53;;;;;;;52.63;32.35;;;9.40;80.40;10.80;100685.00;;;;5059202;28;20555;-79
2020/12/16 06:42:33;;;;;;;51.47;31.87;;;9.40;80.60;10.80;100692.00;;;;5065745;28;20968;-79
2020/12/16 06:45:15;;;;;;;53.40;33.80;;;9.30;80.60;10.80;100677.00;;;;5047356;28;20427;-79
2020/12/16 06:47:44;;;;;;;52.50;31.95;;;9.30;80.60;10.80;100684.00;;;;5067540;28;20429;-79
2020/12/16 06:50:22;;;;;;;55.70;32.85;;;9.30;80.70;10.80;100693.00;;;;5054276;28;20405;-79
2020/12/16 06:52:50;;;;;;;56.13;34.75;;;9.30;80.80;10.80;100685.00;;;;5052184;28;20516;-79
2020/12/16 06:55:17;;;;;;;55.95;33.75;;;9.30;80.70;10.70;100685.00;;;;5071761;28;21106;-79
2020/12/16 06:57:50;;;;;;;68.70;35.40;;;9.20;80.70;10.70;100679.00;;;;5060383;28;20463;-80
2020/12/16 07:00:21;;;;;;;66.18;35.38;;;9.20;80.80;10.70;100671.00;;;;5074800;28;20419;-78
2020/12/16 07:02:50;;;;;;;62.65;35.28;;;9.20;80.90;10.70;100677.00;;;;5066938;28;20443;-78
2020/12/16 07:05:40;;;;;;;61.60;35.97;;;9.20;80.90;10.70;100683.00;;;;5041558;28;20528;-78
2020/12/16 07:08:07;;;;;;;58.43;35.87;;;9.20;80.90;10.70;100685.00;;;;5067569;28;20458;-78
2020/12/16 07:10:47;;;;;;;56.50;35.20;;;9.20;81.00;10.70;100689.00;;;;5052334;28;20416;-78
2020/12/16 07:13:30;;;;;;;53.60;33.17;;;9.20;80.90;10.80;100692.00;;;;5051385;28;20445;-79
2020/12/16 07:16:01;;;;;;;50.17;32.70;;;9.30;81.00;10.80;100705.00;;;;5073056;28;20503;-79
2020/12/16 07:18:47;;;;;;;52.88;34.25;;;9.30;80.90;10.80;100720.00;;;;5057031;28;20422;-80
2020/12/16 07:21:31;;;;;;;55.30;35.30;;;9.30;80.80;10.80;100715.00;;;;5058726;28;20457;-80
2020/12/16 07:24:14;;;;;;;44.25;32.05;;;9.30;80.70;10.90;100727.00;;;;5058716;28;20537;-79
2020/12/16 07:26:51;;;;;;;50.13;32.70;;;9.40;80.50;10.90;100725.00;;;;5061283;28;20470;-79
2020/12/16 07:29:29;;;;;;;52.00;33.90;;;9.40;80.30;10.90;100748.00;;;;5059625;28;20417;-78
2020/12/16 07:32:07;;;;;;;50.47;33.10;;;9.40;79.90;10.80;100740.00;;;;5064394;28;20480;-79
2020/12/16 07:34:45;;;;;;;51.25;33.20;;;9.30;80.40;10.80;100735.00;;;;5066371;28;20478;-80
2020/12/16 07:37:15;;;;;;;50.78;32.17;;;9.40;80.70;10.80;100746.00;;;;5066713;28;21045;-80
2020/12/16 07:39:52;;;;;;;44.38;30.38;;;9.40;80.70;10.90;100737.00;;;;5074442;28;20438;-79
2020/12/16 07:42:29;;;;;;;46.20;31.33;;;9.50;80.80;11.00;100741.00;;;;5068328;28;20422;-79
2020/12/16 07:44:59;;;;;;;49.55;33.85;;;9.50;80.50;11.00;100710.00;;;;5064530;28;20432;-78
2020/12/16 07:47:27;;;;;;;47.63;32.35;;;9.50;80.30;11.10;100709.00;;;;5067167;28;20421;-79
2020/12/16 07:49:56;;;;;;;49.58;32.15;;;9.60;80.20;11.10;100706.00;;;;5068427;28;20413;-80
2020/12/16 07:52:24;;;;;;;45.67;31.88;;;9.60;80.10;11.00;100726.00;;;;5067316;28;20423;-78
2020/12/16 07:54:52;;;;;;;45.25;32.13;;;9.50;80.10;11.00;100727.00;;;;5091945;28;20411;-79
2020/12/16 07:57:28;;;;;;;42.83;30.92;;;9.50;80.20;11.10;100719.00;;;;5075784;28;20405;-78
2020/12/16 07:59:56;;;;;;;47.08;32.05;;;9.50;80.10;11.10;100734.00;;;;5065496;28;20430;-78
2020/12/16 08:02:27;;;;;;;46.28;32.33;;;9.50;80.10;11.20;100728.00;;;;5047436;28;20423;-79
2020/12/16 08:05:02;;;;;;;42.95;31.60;;;9.50;80.00;11.20;100728.00;;;;5058417;28;20910;-79
2020/12/16 08:07:34;;;;;;;42.80;30.45;;;9.60;80.00;11.30;100725.00;;;;5042323;28;20430;-78
2020/12/16 08:10:06;;;;;;;42.83;30.90;;;9.60;79.90;11.30;100731.00;;;;5053977;28;20438;-78
2020/12/16 08:12:40;;;;;;;45.13;32.25;;;9.70;79.70;11.30;100727.00;;;;5061955;28;20461;-79
2020/12/16 08:15:10;;;;;;;45.55;31.85;;;9.70;79.40;11.30;100735.00;;;;5062638;28;20421;-79
2020/12/16 08:17:42;;;;;;;37.63;29.17;;;9.70;79.20;11.20;68757.00;;;;5068139;28;20397;-80
2020/12/16 08:20:12;;;;;;;31.13;27.23;;;9.70;79.20;11.30;100727.00;;;;5068652;28;20444;-80
2020/12/16 08:22:41;;;;;;;33.42;26.55;;;9.80;78.90;11.40;100741.00;;;;5066501;28;20418;-79
2020/12/16 08:25:12;;;;;;;31.40;25.35;;;9.80;79.50;11.50;100732.00;;;;5066252;28;20424;-79
2020/12/16 08:27:44;;;;;;;29.17;24.10;;;9.90;78.90;11.50;100745.00;;;;5070758;28;20531;-78
2020/12/16 08:30:17;;;;;;;29.38;24.75;;;9.90;78.40;11.50;100751.00;;;;5074341;28;20435;-79
2020/12/16 08:32:53;;;;;;;30.13;23.90;;;10.00;77.10;11.50;100753.00;;;;5068265;28;20425;-78
2020/12/16 08:35:28;;;;;;;28.50;25.30;;;9.90;77.70;11.60;100742.00;;;;5058750;28;20429;-78
2020/12/16 08:38:01;;;;;;;29.50;25.33;;;9.90;77.80;11.60;100743.00;;;;5082386;28;20407;-84
2020/12/16 08:40:30;;;;;;;30.65;25.40;;;10.00;77.00;11.70;100756.00;;;;5084365;28;20449;-79
2020/12/16 08:43:19;;;;;;;29.58;24.70;;;10.00;76.40;11.70;100740.00;;;;5076921;28;20416;-79
2020/12/16 08:45:48;;;;;;;29.08;25.05;;;10.10;76.80;11.70;100748.00;;;;5074512;28;20428;-80
2020/12/16 08:48:19;;;;;;;29.70;25.13;;;10.10;77.00;11.70;100753.00;;;;5067138;28;20433;-79
2020/12/16 08:50:47;;;;;;;27.95;24.33;;;10.10;77.70;11.70;100761.00;;;;5059018;28;20508;-77
2020/12/16 08:53:16;;;;;;;33.53;26.15;;;10.00;77.00;11.60;100757.00;;;;5056306;28;20512;-78
2020/12/16 08:56:28;;;;;;;30.75;25.23;;;10.00;77.00;11.60;100751.00;;;;5064489;28;20415;-77
2020/12/16 08:59:10;;;;;;;28.60;24.67;;;10.00;76.80;11.70;100751.00;;;;5054572;28;20421;-78
2020/12/16 09:01:41;;;;;;;27.70;24.40;;;10.00;76.50;11.70;100746.00;;;;5057272;28;20763;-79
2020/12/16 09:04:11;;;;;;;27.98;22.95;;;10.10;76.40;11.70;100759.00;;;;5056274;28;20452;-79
2020/12/16 09:06:39;;;;;;;26.13;22.40;;;10.10;76.00;11.80;100763.00;;;;5048338;28;20894;-78
2020/12/16 09:09:14;;;;;;;26.50;22.38;;;10.00;75.60;11.80;100768.00;;;;5050929;28;20421;-79
2020/12/16 09:11:50;;;;;;;24.90;22.30;;;10.10;75.60;11.80;100772.00;;;;5077360;28;20416;-80
2020/12/16 09:14:19;;;;;;;27.35;22.80;;;10.10;75.20;11.70;100773.00;;;;5070049;28;20441;-79
2020/12/16 09:16:50;;;;;;;24.58;21.70;;;10.10;75.30;11.70;100756.00;;;;5073192;28;20412;-79
2020/12/16 09:19:20;;;;;;;25.60;22.80;;;10.00;75.40;11.70;100767.00;;;;5069136;28;20937;-78
2020/12/16 09:21:49;;;;;;;26.02;23.20;;;10.00;75.50;11.80;100760.00;;;;5058382;28;20475;-78
2020/12/16 09:24:25;;;;;;;25.27;22.58;;;10.10;75.70;11.80;100761.00;;;;5059287;28;20493;-80
2020/12/16 09:26:55;;;;;;;27.33;24.07;;;10.10;75.90;11.80;100764.00;;;;5067910;28;20459;-78
2020/12/16 09:29:25;;;;;;;26.10;23.30;;;10.10;75.90;11.80;100782.00;;;;5057348;28;20974;-79
2020/12/16 09:32:07;;;;;;;27.08;23.15;;;10.00;76.00;11.80;100777.00;;;;5046414;28;20455;-79
2020/12/16 09:34:40;;;;;;;27.30;23.42;;;10.10;75.90;11.80;100775.00;;;;5049166;28;20495;-79
2020/12/16 09:37:14;;;;;;;27.40;23.85;;;10.10;75.60;11.70;100778.00;;;;5059157;28;20451;-78
2020/12/16 09:39:43;;;;;;;24.85;22.25;;;10.10;75.60;11.80;100777.00;;;;5066576;28;20483;-78
2020/12/16 09:42:13;;;;;;;24.63;22.02;;;10.00;75.40;11.80;100792.00;;;;5060604;28;20486;-77
2020/12/16 09:44:41;;;;;;;24.73;22.13;;;10.00;75.70;11.80;100769.00;;;;5053190;28;21136;-80
2020/12/16 09:47:16;;;;;;;24.10;21.60;;;10.00;75.50;11.90;100773.00;;;;5055160;28;20409;-78
2020/12/16 09:49:45;;;;;;;23.80;21.20;;;10.10;75.40;11.90;100776.00;;;;5051786;28;20426;-78
2020/12/16 09:52:28;;;;;;;23.75;21.30;;;10.10;75.20;11.90;100779.00;;;;5057512;28;20437;-78
2020/12/16 09:54:58;;;;;;;22.92;20.52;;;10.20;75.50;11.90;100779.00;;;;5060103;28;20417;-79
2020/12/16 09:57:26;;;;;;;22.08;19.77;;;10.20;74.80;11.90;100787.00;;;;5058749;28;20428;-78
2020/12/16 09:59:57;;;;;;;22.70;20.20;;;10.20;74.80;12.00;100790.00;;;;5058655;28;20842;-79
2020/12/16 10:02:24;;;;;;;23.63;21.13;;;10.20;74.60;12.10;100783.00;;;;5056372;28;20546;-78
2020/12/16 10:04:52;;;;;;;23.55;21.08;;;10.20;74.60;12.20;100780.00;;;;5051137;28;20475;-79
2020/12/16 10:07:19;;;;;;;22.30;20.00;;;10.30;74.20;12.30;100761.00;;;;5080828;28;20425;-79
2020/12/16 10:09:54;;;;;;;22.10;19.80;;;10.50;73.60;12.50;100768.00;;;;5076883;28;20416;-79
2020/12/16 10:12:23;;;;;;;21.43;19.23;;;10.60;73.10;12.70;100758.00;;;;5070067;28;20476;-78
2020/12/16 10:14:52;;;;;;;22.77;20.30;;;10.70;72.40;12.80;100757.00;;;;5065630;28;20422;-79
2020/12/16 10:17:25;;;;;;;22.40;20.10;;;10.80;72.00;12.80;100754.00;;;;5067230;28;20409;-80
2020/12/16 10:19:53;;;;;;;23.05;20.65;;;10.80;71.60;12.80;100755.00;;;;5071205;28;20467;-79
2020/12/16 10:22:21;;;;;;;22.75;20.45;;;10.90;71.60;12.80;100744.00;;;;5068986;28;20810;-79
2020/12/16 10:24:49;;;;;;;22.70;20.40;;;10.90;71.30;12.90;100755.00;;;;5055308;28;20427;-79
2020/12/16 10:27:18;;;;;;;23.50;21.00;;;10.90;71.50;13.10;100753.00;;;;5041492;28;20410;-80
2020/12/16 10:29:46;;;;;;;23.80;21.30;;;11.10;71.20;13.20;100739.00;;;;5060193;28;20436;-80
2020/12/16 10:32:14;;;;;;;22.80;20.50;;;11.20;70.30;13.30;100741.00;;;;5083016;28;20429;-78
2020/12/16 10:34:42;;;;;;;21.90;19.70;;;11.30;69.60;13.40;100744.00;;;;5060732;28;20593;-80
2020/12/16 10:37:09;;;;;;;22.25;20.05;;;11.30;69.20;13.50;100748.00;;;;5054240;28;20464;-80
2020/12/16 10:39:37;;;;;;;22.90;20.40;;;11.40;69.50;13.50;100725.00;;;;5055384;28;20507;-78
2020/12/16 10:42:05;;;;;;;25.30;21.63;;;11.40;68.90;13.60;100731.00;;;;5058942;28;20423;-78
2020/12/16 10:44:32;;;;;;;23.20;20.85;;;11.50;68.80;13.50;100732.00;;;;5064030;28;20429;-78
2020/12/16 10:47:00;;;;;;;23.83;21.23;;;11.60;68.50;13.50;100730.00;;;;5056226;28;20443;-78
2020/12/16 10:49:28;;;;;;;23.65;21.15;;;11.50;69.00;13.50;100722.00;;;;5053326;28;20476;-77
2020/12/16 10:51:56;;;;;;;23.30;20.80;;;11.50;68.20;13.40;100719.00;;;;5051086;28;20457;-77
2020/12/16 10:54:23;;;;;;;22.88;20.38;;;11.50;68.60;13.50;100714.00;;;;5051754;28;20812;-79
2020/12/16 10:56:54;;;;;;;22.88;20.50;;;11.50;68.30;13.70;100708.00;;;;5057604;28;20458;-79
2020/12/16 10:59:22;;;;;;;22.92;20.42;;;11.60;68.00;13.70;100712.00;;;;5046506;28;20429;-79